Time;durP1;ratioP1;P1;durP2;ratioP2;P2;SDS_P1;SDS_P2;PMS_P1;PMS_P2;Temp;Humidity;BMP_temperature;BMP_pressure;BME280_temperature;BME280_humidity;BME280_pressure;Samples;Min_cycle;Max_cycle;Signal;HPM_P1;HPM_P2
2022/01/07 00:01:01;;;;;;;7.23;2.60;;;-3.90;99.90;;;;;;5074701;28;20501;-79
2022/01/07 00:03:27;;;;;;;5.63;2.13;;;-4.10;99.90;;;;;;5075766;28;20401;-79
2022/01/07 00:05:54;;;;;;;10.00;2.47;;;-3.30;99.90;;;;;;5075020;28;20402;-80
2022/01/07 00:08:20;;;;;;;6.80;2.30;;;-3.90;99.90;;;;;;5074859;28;20495;-82
2022/01/07 00:10:46;;;;;;;2.57;1.77;;;-4.70;99.90;;;;;;5074580;28;20448;-80
2022/01/07 00:13:13;;;;;;;4.30;2.27;;;-4.40;99.90;;;;;;5075294;28;20400;-83
2022/01/07 00:15:40;;;;;;;6.03;2.40;;;-4.90;99.90;;;;;;5074992;28;20603;-81
2022/01/07 00:18:06;;;;;;;4.77;1.70;;;-3.50;99.90;;;;;;5074525;28;20763;-80
2022/01/07 00:20:32;;;;;;;5.53;2.27;;;-3.90;99.90;;;;;;5074640;28;20509;-80
2022/01/07 00:22:58;;;;;;;9.80;2.47;;;-3.00;99.90;;;;;;5075525;28;20400;-79
2022/01/07 00:25:24;;;;;;;5.60;2.60;;;-2.90;99.90;;;;;;5075059;28;20464;-79
2022/01/07 00:27:51;;;;;;;4.23;2.30;;;-3.30;99.90;;;;;;5074080;28;20405;-79
2022/01/07 00:30:19;;;;;;;5.57;2.70;;;-4.80;99.90;;;;;;5075765;28;20851;-77
2022/01/07 00:32:45;;;;;;;3.73;1.83;;;-4.10;99.90;;;;;;5073622;28;20432;-79
2022/01/07 00:35:12;;;;;;;10.20;3.40;;;-4.90;99.90;;;;;;5075434;28;20697;-81
2022/01/07 00:37:38;;;;;;;6.83;2.30;;;-4.60;99.90;;;;;;5074275;28;20406;-78
2022/01/07 00:40:06;;;;;;;3.97;2.20;;;-4.60;99.90;;;;;;5075220;28;20419;-83
2022/01/07 00:42:32;;;;;;;4.47;2.47;;;-4.60;99.90;;;;;;5074733;28;20174;-81
2022/01/07 00:44:57;;;;;;;5.50;2.80;;;-5.00;99.90;;;;;;5073552;28;20678;-81
2022/01/07 00:47:24;;;;;;;3.37;2.40;;;-3.10;99.90;;;;;;5075299;28;20160;-82
2022/01/07 00:49:50;;;;;;;6.03;2.03;;;-3.80;99.90;;;;;;5074567;28;20160;-79
2022/01/07 00:52:15;;;;;;;5.83;2.63;;;-4.10;99.90;;;;;;5075486;28;20429;-81
2022/01/07 00:54:41;;;;;;;7.20;2.10;;;-4.00;99.90;;;;;;5079245;28;20581;-80
2022/01/07 00:57:07;;;;;;;5.03;2.17;;;-3.20;99.90;;;;;;5078818;28;20174;-81
2022/01/07 00:59:33;;;;;;;6.70;2.53;;;-5.10;99.90;;;;;;5078300;28;20190;-78
2022/01/07 01:01:59;;;;;;;6.97;2.77;;;-3.80;99.90;;;;;;5079085;28;20231;-77
2022/01/07 01:04:25;;;;;;;7.17;3.93;;;-5.00;99.90;;;;;;5079066;28;20402;-81
2022/01/07 01:06:50;;;;;;;8.47;2.67;;;-5.10;99.90;;;;;;5078963;28;20474;-79
2022/01/07 01:09:16;;;;;;;3.07;1.97;;;-2.00;99.90;;;;;;5078457;28;20539;-79
2022/01/07 01:11:42;;;;;;;5.67;2.50;;;-3.40;99.90;;;;;;5085027;28;20198;-77
2022/01/07 01:14:08;;;;;;;7.10;2.50;;;-2.30;99.90;;;;;;5083722;28;20172;-76
2022/01/07 01:16:35;;;;;;;12.23;2.57;;;-5.20;99.90;;;;;;5079698;28;20846;-77
2022/01/07 01:19:01;;;;;;;7.60;2.20;;;-4.80;99.90;;;;;;5078583;28;20178;-78
2022/01/07 01:21:27;;;;;;;4.53;2.67;;;-4.30;99.90;;;;;;5078678;28;20444;-83
2022/01/07 01:23:53;;;;;;;11.33;2.97;;;-4.30;99.90;;;;;;5078545;28;20451;-78
2022/01/07 01:26:19;;;;;;;35.30;7.30;;;-5.60;99.90;;;;;;5077624;28;20194;-77
2022/01/07 01:28:46;;;;;;;9.70;3.50;;;-5.30;99.90;;;;;;5077354;28;20412;-78
2022/01/07 01:31:14;;;;;;;7.40;2.80;;;-3.60;99.90;;;;;;5078549;28;20596;-76
2022/01/07 01:33:40;;;;;;;7.87;3.70;;;-4.90;99.90;;;;;;5078078;28;20711;-79
2022/01/07 01:36:08;;;;;;;8.53;2.63;;;-5.50;99.90;;;;;;5078021;28;20404;-77
2022/01/07 01:38:35;;;;;;;5.67;2.80;;;-5.60;99.90;;;;;;5078392;28;20199;-75
2022/01/07 01:41:00;;;;;;;4.67;3.83;;;-5.50;99.90;;;;;;5077933;28;20460;-76
2022/01/07 01:43:26;;;;;;;4.10;3.27;;;-5.40;99.90;;;;;;5077577;28;20859;-75
2022/01/07 01:45:52;;;;;;;3.73;2.40;;;-5.60;99.90;;;;;;5078237;28;20164;-74
2022/01/07 01:48:20;;;;;;;8.07;3.03;;;-6.50;99.90;;;;;;5078261;28;20506;-79
2022/01/07 01:50:47;;;;;;;12.17;3.93;;;-6.20;99.90;;;;;;5078013;28;20552;-77
2022/01/07 01:53:14;;;;;;;4.40;2.63;;;-5.60;99.90;;;;;;5077347;28;20428;-81
2022/01/07 01:55:40;;;;;;;5.67;4.17;;;-6.60;99.90;;;;;;5077836;28;20482;-74
2022/01/07 01:58:06;;;;;;;6.87;3.53;;;-6.50;99.90;;;;;;5077881;28;20867;-81
2022/01/07 02:00:32;;;;;;;5.27;3.37;;;-6.20;99.90;;;;;;5076595;28;20195;-75
2022/01/07 02:02:58;;;;;;;5.10;3.03;;;-4.30;99.90;;;;;;5077434;28;20191;-77
2022/01/07 02:05:24;;;;;;;10.83;5.43;;;-3.50;99.90;;;;;;5077645;28;20420;-82
2022/01/07 02:07:50;;;;;;;9.40;4.23;;;-6.00;99.90;;;;;;5076865;28;20508;-82
2022/01/07 02:10:17;;;;;;;4.37;3.57;;;-5.80;99.90;;;;;;5077415;28;20435;-82
2022/01/07 02:12:43;;;;;;;4.13;3.17;;;-6.00;99.90;;;;;;5077113;28;20392;-80
2022/01/07 02:15:11;;;;;;;5.57;4.47;;;-5.80;99.90;;;;;;5077910;28;20401;-80
2022/01/07 02:17:41;;;;;;;8.07;3.60;;;-5.70;99.90;;;;;;5077639;28;20932;-80
2022/01/07 02:20:07;;;;;;;5.47;4.03;;;-5.90;99.90;;;;;;5076767;28;20413;-80
2022/01/07 02:22:33;;;;;;;5.33;3.73;;;-5.80;99.90;;;;;;5077743;28;20828;-78
2022/01/07 02:24:59;;;;;;;9.57;4.77;;;-4.70;99.90;;;;;;5077263;28;20415;-81
2022/01/07 02:27:25;;;;;;;5.23;4.00;;;1.70;99.90;;;;;;5077585;28;20193;-80
2022/01/07 02:29:51;;;;;;;9.03;3.67;;;3.30;99.90;;;;;;5076603;28;20321;-81
2022/01/07 02:32:18;;;;;;;6.60;4.57;;;3.80;99.90;;;;;;5077463;28;20250;-71
2022/01/07 02:34:46;;;;;;;7.00;3.83;;;4.00;99.90;;;;;;5077442;28;20404;-81
2022/01/07 02:37:12;;;;;;;6.03;3.87;;;3.70;99.90;;;;;;5077127;28;20412;-81
2022/01/07 02:39:39;;;;;;;8.80;4.40;;;-6.10;99.90;;;;;;5077036;28;20412;-81
2022/01/07 02:42:05;;;;;;;6.53;4.07;;;-5.60;99.90;;;;;;5077075;28;20452;-79
2022/01/07 02:44:31;;;;;;;6.00;4.67;;;-5.90;99.90;;;;;;5076904;28;20492;-82
2022/01/07 02:46:57;;;;;;;7.03;3.93;;;-6.00;99.90;;;;;;5076630;28;20466;-76
2022/01/07 02:49:22;;;;;;;5.10;3.53;;;-4.70;99.90;;;;;;5076482;28;20175;-81
2022/01/07 02:51:48;;;;;;;4.87;4.03;;;-5.80;99.90;;;;;;5076643;28;20525;-81
2022/01/07 02:54:16;;;;;;;4.73;4.30;;;-5.70;99.90;;;;;;5077058;28;20174;-73
2022/01/07 02:56:42;;;;;;;4.07;3.73;;;-5.70;99.90;;;;;;5075393;28;20183;-81
2022/01/07 02:59:10;;;;;;;7.03;4.53;;;-5.70;99.90;;;;;;5076276;28;20443;-81
2022/01/07 03:01:38;;;;;;;4.20;3.77;;;-5.80;99.90;;;;;;5076703;28;20945;-82
2022/01/07 03:04:06;;;;;;;4.10;3.73;;;-3.90;99.90;;;;;;5075652;28;20412;-78
2022/01/07 03:06:32;;;;;;;5.43;4.70;;;-5.60;99.90;;;;;;5075669;28;20394;-79
2022/01/07 03:08:58;;;;;;;5.67;3.33;;;-5.60;99.90;;;;;;5076768;28;20432;-73
2022/01/07 03:11:24;;;;;;;4.70;3.93;;;-5.30;99.90;;;;;;5076511;28;20464;-73
2022/01/07 03:13:50;;;;;;;5.20;3.43;;;-5.90;99.90;;;;;;5076644;28;20778;-71
2022/01/07 03:16:16;;;;;;;3.37;3.10;;;-5.70;99.90;;;;;;5075753;28;20186;-72
2022/01/07 03:18:42;;;;;;;5.40;3.73;;;-5.60;99.90;;;;;;5074593;28;20183;-73
2022/01/07 03:21:08;;;;;;;5.37;4.87;;;-5.30;99.90;;;;;;5076118;28;20521;-72
2022/01/07 03:23:36;;;;;;;4.97;3.80;;;-5.50;99.90;;;;;;5076320;28;20827;-73
2022/01/07 03:26:03;;;;;;;10.17;4.73;;;-5.80;99.90;;;;;;5075617;28;20167;-76
2022/01/07 03:28:29;;;;;;;6.80;4.10;;;-5.60;99.90;;;;;;5076371;28;20479;-75
2022/01/07 03:30:55;;;;;;;7.80;7.00;;;-5.50;99.90;;;;;;5075108;28;20515;-72
2022/01/07 03:33:21;;;;;;;5.63;4.83;;;-5.20;99.90;;;;;;5075708;28;20340;-78
2022/01/07 03:35:47;;;;;;;8.70;5.60;;;-5.30;99.90;;;;;;5075804;28;20171;-77
2022/01/07 03:38:13;;;;;;;7.00;4.80;;;-3.40;99.90;;;;;;5076021;28;20571;-72
2022/01/07 03:40:39;;;;;;;5.67;5.20;;;-5.10;99.90;;;;;;5075998;28;20550;-73
2022/01/07 03:43:05;;;;;;;6.33;4.63;;;-5.10;99.90;;;;;;5075201;28;20177;-78
2022/01/07 03:45:31;;;;;;;4.80;4.40;;;-5.30;99.90;;;;;;5076280;28;20179;-80
2022/01/07 03:47:57;;;;;;;5.63;4.53;;;-5.30;99.90;;;;;;5075915;28;20749;-80
2022/01/07 03:50:26;;;;;;;6.83;6.23;;;-5.80;99.90;;;;;;5075822;28;20167;-80
2022/01/07 03:52:53;;;;;;;4.87;4.40;;;-5.60;99.90;;;;;;5074086;28;20203;-77
2022/01/07 03:55:21;;;;;;;6.87;5.50;;;-5.60;99.90;;;;;;5076008;28;20419;-77
2022/01/07 03:57:47;;;;;;;6.43;5.03;;;-5.30;99.90;;;;;;5075581;28;20487;-75
2022/01/07 04:00:16;;;;;;;6.70;5.80;;;-4.80;99.90;;;;;;5075352;28;20491;-73
2022/01/07 04:02:43;;;;;;;6.03;5.20;;;-4.90;99.90;;;;;;5074492;28;20207;-79
2022/01/07 04:05:09;;;;;;;8.63;5.47;;;-4.30;99.90;;;;;;5075705;28;20432;-79
2022/01/07 04:07:35;;;;;;;7.17;5.27;;;-5.40;99.90;;;;;;5075596;28;20404;-75
2022/01/07 04:10:04;;;;;;;5.93;5.43;;;-5.30;99.90;;;;;;5074981;28;20439;-79
2022/01/07 04:12:30;;;;;;;9.07;5.37;;;-5.20;99.90;;;;;;5075333;28;20400;-77
2022/01/07 04:15:08;;;;;;;7.07;6.40;;;-5.30;99.90;;;;;;5075393;28;20494;-80
2022/01/07 04:17:44;;;;;;;6.67;5.53;;;-5.30;99.90;;;;;;5074270;28;20483;-78
2022/01/07 04:20:13;;;;;;;11.67;5.67;;;-5.00;99.90;;;;;;5074547;28;20442;-76
2022/01/07 04:22:39;;;;;;;5.87;5.37;;;-4.60;99.90;;;;;;5075672;28;20397;-79
2022/01/07 04:25:08;;;;;;;6.43;5.73;;;-4.50;99.90;;;;;;5075609;28;20396;-77
2022/01/07 04:27:34;;;;;;;8.50;6.30;;;-4.60;99.90;;;;;;5077183;28;20817;-71
2022/01/07 04:30:00;;;;;;;9.00;5.57;;;-4.60;99.90;;;;;;5079362;28;20506;-71
2022/01/07 04:32:26;;;;;;;9.20;6.47;;;-4.80;99.90;;;;;;5079675;28;21179;-72
2022/01/07 04:34:51;;;;;;;7.87;6.00;;;-4.70;99.90;;;;;;5079559;28;20186;-77
2022/01/07 04:37:17;;;;;;;11.03;6.87;;;-5.10;99.90;;;;;;5078718;28;20586;-76
2022/01/07 04:39:43;;;;;;;9.97;6.23;;;-5.40;99.90;;;;;;5079509;28;20183;-72
2022/01/07 04:42:11;;;;;;;11.20;6.07;;;-5.30;99.90;;;;;;5079469;28;20250;-75
2022/01/07 04:44:40;;;;;;;10.87;6.67;;;-2.80;99.90;;;;;;5079521;28;20412;-77
2022/01/07 04:47:09;;;;;;;11.50;8.87;;;-4.00;99.90;;;;;;5078550;28;20407;-71
2022/01/07 04:49:36;;;;;;;13.33;7.37;;;-3.80;99.90;;;;;;5077772;28;20714;-72
2022/01/07 04:52:04;;;;;;;11.93;6.37;;;-4.40;99.90;;;;;;5081914;28;20398;-72
2022/01/07 04:54:30;;;;;;;16.33;7.30;;;-4.50;99.90;;;;;;5081338;28;20403;-78
2022/01/07 04:56:56;;;;;;;10.00;7.60;;;-4.50;99.90;;;;;;5078804;28;20419;-72
2022/01/07 04:59:22;;;;;;;12.47;7.10;;;4.60;99.90;;;;;;5078787;28;20424;-76
2022/01/07 05:01:48;;;;;;;10.30;8.03;;;4.60;99.90;;;;;;5078969;28;20451;-76
2022/01/07 05:04:14;;;;;;;12.60;7.83;;;4.60;99.90;;;;;;5077929;28;20171;-71
2022/01/07 05:06:47;;;;;;;7.50;6.73;;;4.10;99.90;;;;;;5079187;28;20602;-72
2022/01/07 05:09:16;;;;;;;8.60;6.70;;;4.10;99.90;;;;;;5077771;28;20888;-79
2022/01/07 05:11:42;;;;;;;15.07;8.50;;;4.20;99.90;;;;;;5078613;28;20439;-72
2022/01/07 05:14:08;;;;;;;15.10;8.10;;;4.70;99.90;;;;;;5078039;28;20427;-75
2022/01/07 05:16:34;;;;;;;8.40;7.37;;;4.70;99.90;;;;;;5078962;28;20828;-80
2022/01/07 05:18:59;;;;;;;14.57;7.73;;;4.50;99.90;;;;;;5078433;28;20173;-79
2022/01/07 05:21:25;;;;;;;8.90;7.67;;;4.50;99.90;;;;;;5078167;28;20195;-74
2022/01/07 05:23:51;;;;;;;15.10;9.53;;;4.80;99.90;;;;;;5078479;28;20265;-77
2022/01/07 05:26:17;;;;;;;13.73;7.43;;;5.00;99.90;;;;;;5078811;28;20173;-72
2022/01/07 05:28:42;;;;;;;12.40;7.40;;;5.00;99.90;;;;;;5077912;28;20181;-73
2022/01/07 05:31:08;;;;;;;13.00;7.80;;;5.10;99.90;;;;;;5077846;28;20175;-75
2022/01/07 05:33:34;;;;;;;8.63;7.07;;;5.10;99.90;;;;;;5078026;28;20171;-72
2022/01/07 05:35:59;;;;;;;13.73;7.70;;;5.00;99.90;;;;;;5078498;28;20257;-74
2022/01/07 05:38:25;;;;;;;7.63;6.90;;;5.10;99.90;;;;;;5077660;28;20177;-71
2022/01/07 05:40:51;;;;;;;10.80;7.03;;;5.10;99.90;;;;;;5077991;28;20203;-74
2022/01/07 05:43:17;;;;;;;9.87;7.67;;;5.10;99.90;;;;;;5077505;28;20224;-73
2022/01/07 05:45:45;;;;;;;9.83;8.93;;;5.10;99.90;;;;;;5078134;28;20241;-71
2022/01/07 05:48:12;;;;;;;7.53;6.83;;;5.10;99.90;;;;;;5078035;28;20187;-73
2022/01/07 05:50:38;;;;;;;12.63;8.10;;;5.10;99.90;;;;;;5077835;28;20851;-71
2022/01/07 05:53:03;;;;;;;13.03;7.73;;;-5.80;99.90;;;;;;5078258;28;20509;-71
2022/01/07 05:55:29;;;;;;;9.37;7.43;;;-5.80;99.90;;;;;;5078013;28;20172;-78
2022/01/07 05:57:55;;;;;;;9.63;7.07;;;-5.90;99.90;;;;;;5077200;28;20168;-73
2022/01/07 06:00:21;;;;;;;8.03;7.23;;;-5.80;99.90;;;;;;5077735;28;20276;-71
2022/01/07 06:02:47;;;;;;;8.97;7.23;;;-5.70;99.90;;;;;;5078140;28;20175;-74
2022/01/07 06:05:13;;;;;;;11.60;8.03;;;2.30;99.90;;;;;;5078163;28;20177;-71
2022/01/07 06:07:38;;;;;;;10.40;6.50;;;3.60;99.90;;;;;;5077134;28;20213;-72
2022/01/07 06:10:06;;;;;;;12.17;8.50;;;3.80;99.90;;;;;;5077721;28;20197;-76
2022/01/07 06:12:31;;;;;;;9.77;7.00;;;4.00;99.90;;;;;;5077638;28;20210;-77
2022/01/07 06:14:58;;;;;;;9.00;7.10;;;4.10;99.90;;;;;;5077223;28;20408;-76
2022/01/07 06:17:24;;;;;;;9.37;7.40;;;4.20;99.90;;;;;;5076072;28;20179;-72
2022/01/07 06:19:49;;;;;;;12.53;6.97;;;4.30;99.90;;;;;;5059858;28;20425;-78
2022/01/07 06:22:15;;;;;;;10.90;6.97;;;4.30;99.90;;;;;;5077505;28;20725;-77
2022/01/07 06:24:41;;;;;;;11.27;6.93;;;4.40;99.90;;;;;;5077569;28;20182;-72
2022/01/07 06:27:07;;;;;;;11.27;7.47;;;4.40;99.90;;;;;;5076697;28;20167;-75
2022/01/07 06:29:33;;;;;;;10.13;6.73;;;4.40;99.90;;;;;;5076211;28;20164;-72
2022/01/07 06:31:58;;;;;;;9.67;6.63;;;4.60;99.90;;;;;;5076350;28;20184;-73
2022/01/07 06:34:24;;;;;;;11.30;6.80;;;4.70;99.90;;;;;;5077348;28;20229;-71
2022/01/07 06:36:50;;;;;;;9.23;6.83;;;4.80;99.90;;;;;;5076651;28;20175;-71
2022/01/07 06:39:19;;;;;;;11.70;6.83;;;4.80;99.90;;;;;;5077254;28;20558;-80
2022/01/07 06:41:48;;;;;;;7.77;6.80;;;4.80;99.90;;;;;;5077075;28;20459;-73
2022/01/07 06:44:15;;;;;;;10.33;8.17;;;4.70;99.90;;;;;;5076954;28;20404;-79
2022/01/07 06:46:41;;;;;;;10.00;6.37;;;1.00;99.90;;;;;;5076295;28;20401;-72
2022/01/07 06:49:06;;;;;;;17.67;9.50;;;-5.20;99.90;;;;;;5077139;28;20711;-81
2022/01/07 06:51:32;;;;;;;13.57;6.80;;;-5.30;99.90;;;;;;5075912;28;20263;-75
2022/01/07 06:53:59;;;;;;;6.77;6.17;;;-5.90;99.90;;;;;;5076443;28;20184;-77
2022/01/07 06:56:25;;;;;;;9.20;6.30;;;-6.00;99.90;;;;;;5076612;28;20407;-75
2022/01/07 06:58:51;;;;;;;16.23;7.30;;;-5.80;99.90;;;;;;5076558;28;20866;-76
2022/01/07 07:01:17;;;;;;;14.23;7.43;;;-5.80;99.90;;;;;;5076797;28;20531;-77
2022/01/07 07:03:43;;;;;;;9.63;6.60;;;-4.50;99.90;;;;;;5076556;28;20161;-81
2022/01/07 07:06:10;;;;;;;8.50;5.80;;;-5.90;99.90;;;;;;5075919;28;20559;-75
2022/01/07 07:08:36;;;;;;;10.17;6.67;;;-5.80;99.90;;;;;;5076516;28;20586;-75
2022/01/07 07:11:02;;;;;;;8.73;6.37;;;-5.50;99.90;;;;;;5076499;28;20437;-72
2022/01/07 07:13:28;;;;;;;8.37;5.90;;;-5.40;99.90;;;;;;5075713;28;20161;-73
2022/01/07 07:15:54;;;;;;;6.63;5.73;;;-5.70;99.90;;;;;;5075269;28;20187;-73
2022/01/07 07:18:20;;;;;;;7.57;6.70;;;-6.00;99.90;;;;;;5076566;28;20169;-74
2022/01/07 07:20:45;;;;;;;13.73;6.73;;;-5.70;99.90;;;;;;5076322;28;20188;-75
2022/01/07 07:23:11;;;;;;;6.63;5.90;;;-5.80;99.90;;;;;;5072239;28;20172;-76
2022/01/07 07:25:37;;;;;;;9.03;5.43;;;-5.50;99.90;;;;;;5076388;28;20210;-71
2022/01/07 07:28:03;;;;;;;5.87;5.37;;;-6.10;99.90;;;;;;5074839;28;20172;-80
2022/01/07 07:30:35;;;;;;;6.17;5.20;;;-5.80;99.90;;;;;;5072448;28;20240;-82
2022/01/07 07:33:30;;;;;;;7.43;5.53;;;-5.80;99.90;;;;;;5061673;28;20433;-78
2022/01/07 07:38:42;;;;;;;8.03;6.27;;;-5.60;99.90;;;;;;5056209;28;20411;-79
2022/01/07 07:41:10;;;;;;;5.77;5.13;;;-5.60;99.90;;;;;;5054440;28;20904;-83
2022/01/07 07:43:36;;;;;;;5.83;5.33;;;-5.90;99.90;;;;;;5055252;28;20406;-78
2022/01/07 07:46:03;;;;;;;6.30;5.43;;;-5.80;99.90;;;;;;5055811;28;20444;-77
2022/01/07 07:48:30;;;;;;;6.33;5.27;;;-4.80;99.90;;;;;;5071315;28;20401;-72
2022/01/07 07:50:55;;;;;;;6.63;5.30;;;-5.20;99.90;;;;;;5058052;28;20758;-70
2022/01/07 07:53:21;;;;;;;6.67;4.70;;;-5.40;99.90;;;;;;5058720;28;20414;-70
2022/01/07 07:55:52;;;;;;;9.83;5.23;;;-3.60;99.90;;;;;;5074327;28;20192;-79
2022/01/07 07:58:22;;;;;;;8.80;4.97;;;-5.40;99.90;;;;;;5074461;28;20189;-74
2022/01/07 08:00:48;;;;;;;7.87;5.07;;;-5.40;99.90;;;;;;5074646;28;20441;-70
2022/01/07 08:03:15;;;;;;;7.73;4.67;;;-5.00;99.90;;;;;;5074623;28;20745;-69
2022/01/07 08:05:41;;;;;;;14.53;7.27;;;-5.40;99.90;;;;;;5075529;28;20409;-68
2022/01/07 08:08:07;;;;;;;10.30;4.60;;;-5.50;99.90;;;;;;5073809;28;20405;-71
2022/01/07 08:10:33;;;;;;;7.87;4.77;;;-5.10;99.90;;;;;;5075041;28;20457;-68
2022/01/07 08:18:20;;;;;;;8.20;4.37;;;-5.10;99.90;;;;;;5074634;28;20455;-72
2022/01/07 08:20:46;;;;;;;5.53;4.10;;;-4.20;99.90;;;;;;5073540;28;20479;-70
2022/01/07 08:23:12;;;;;;;10.20;4.73;;;-5.40;99.90;;;;;;5074075;28;20427;-73
2022/01/07 08:25:38;;;;;;;6.97;4.60;;;-5.40;99.90;;;;;;5073305;28;20409;-70
2022/01/07 08:28:05;;;;;;;12.63;4.77;;;-5.10;99.90;;;;;;5074403;28;20756;-68
2022/01/07 08:30:58;;;;;;;10.33;3.80;;;-5.40;99.90;;;;;;5074924;28;20209;-70
2022/01/07 08:36:05;;;;;;;7.37;3.87;;;-5.10;99.90;;;;;;5069050;28;20842;-69
2022/01/07 08:38:30;;;;;;;8.37;4.30;;;-5.30;99.90;;;;;;5073911;28;20413;-70
2022/01/07 08:40:57;;;;;;;7.13;3.90;;;-5.10;99.90;;;;;;5074955;28;20593;-75
2022/01/07 08:43:22;;;;;;;9.80;4.70;;;-3.40;99.90;;;;;;5067334;28;20180;-72
2022/01/07 08:45:48;;;;;;;7.83;4.53;;;-3.90;99.90;;;;;;5065437;28;20425;-70
2022/01/07 08:48:14;;;;;;;10.13;4.23;;;-4.60;99.90;;;;;;5062773;28;20181;-71
2022/01/07 08:50:40;;;;;;;5.57;3.87;;;-4.40;99.90;;;;;;5065920;28;20231;-70
2022/01/07 08:53:05;;;;;;;6.70;3.47;;;-3.10;99.90;;;;;;5060585;28;20265;-72
2022/01/07 08:55:31;;;;;;;6.83;3.70;;;-5.30;99.90;;;;;;5067275;28;20225;-74
2022/01/07 08:57:57;;;;;;;4.70;3.53;;;-5.10;99.90;;;;;;5065135;28;20185;-73
2022/01/07 09:00:24;;;;;;;6.53;3.57;;;-5.00;99.90;;;;;;5072656;28;20500;-73
2022/01/07 09:02:50;;;;;;;7.37;3.93;;;-5.00;99.90;;;;;;5074283;28;20311;-74
2022/01/07 09:05:15;;;;;;;9.03;4.57;;;-3.40;99.90;;;;;;5074680;28;20498;-72
2022/01/07 09:07:41;;;;;;;9.30;4.03;;;-2.90;99.90;;;;;;5074631;28;20166;-73
2022/01/07 09:10:07;;;;;;;5.50;3.83;;;-4.50;99.90;;;;;;5073330;28;20189;-72
2022/01/07 09:12:33;;;;;;;6.30;3.50;;;-5.30;99.90;;;;;;5072543;28;20281;-71
2022/01/07 09:14:59;;;;;;;5.00;4.03;;;-5.30;99.90;;;;;;5074960;28;20509;-72
2022/01/07 09:17:26;;;;;;;7.27;6.00;;;-4.00;99.90;;;;;;5065476;28;20191;-71
2022/01/07 09:19:52;;;;;;;7.70;4.27;;;-5.60;99.90;;;;;;5071961;28;20264;-71
2022/01/07 09:22:18;;;;;;;7.10;4.47;;;-5.20;99.90;;;;;;5076366;28;20904;-71
2022/01/07 09:24:43;;;;;;;9.80;4.63;;;-5.20;99.90;;;;;;5077041;28;20183;-71
2022/01/07 09:27:09;;;;;;;6.90;4.90;;;-5.30;99.90;;;;;;5076399;28;20172;-73
2022/01/07 09:29:35;;;;;;;10.63;4.83;;;-5.00;99.90;;;;;;5075570;28;20174;-70
2022/01/07 09:32:01;;;;;;;6.20;3.67;;;-5.10;99.90;;;;;;5077946;28;20169;-71
2022/01/07 09:34:26;;;;;;;10.33;4.70;;;-5.00;99.90;;;;;;5076978;28;20269;-71
2022/01/07 09:36:52;;;;;;;8.20;4.90;;;-4.90;99.90;;;;;;5075934;28;20182;-74
2022/01/07 09:39:18;;;;;;;8.33;4.43;;;-3.80;99.90;;;;;;5076982;28;20166;-71
2022/01/07 09:41:45;;;;;;;7.93;3.67;;;-4.20;99.90;;;;;;5076985;28;20215;-72
2022/01/07 09:44:11;;;;;;;15.03;5.13;;;-4.80;99.90;;;;;;5077470;28;20418;-73
2022/01/07 09:46:39;;;;;;;8.47;4.47;;;-4.50;99.90;;;;;;5074533;28;20707;-76
2022/01/07 09:49:05;;;;;;;8.67;4.57;;;-2.20;99.90;;;;;;5077862;28;20404;-73
2022/01/07 09:51:31;;;;;;;9.13;4.83;;;-2.60;99.90;;;;;;5074333;28;20540;-73
2022/01/07 09:54:00;;;;;;;7.90;4.33;;;-3.20;99.90;;;;;;5076356;28;20281;-73
2022/01/07 09:56:25;;;;;;;7.57;3.93;;;-4.10;99.90;;;;;;5074983;28;20457;-73
2022/01/07 09:58:51;;;;;;;8.23;3.97;;;-2.70;99.90;;;;;;5076479;28;20430;-72
2022/01/07 10:01:19;;;;;;;7.13;4.27;;;-4.80;99.90;;;;;;5076519;28;20223;-74
2022/01/07 10:03:46;;;;;;;11.27;6.70;;;-4.80;99.90;;;;;;5076251;28;20231;-72
2022/01/07 10:06:19;;;;;;;14.83;3.97;;;-4.10;99.90;;;;;;5067374;28;20428;-71
2022/01/07 10:08:57;;;;;;;6.13;3.73;;;-3.80;99.90;;;;;;5073790;28;20447;-72
2022/01/07 10:11:23;;;;;;;7.97;5.33;;;-4.00;99.90;;;;;;5072084;28;20447;-72
2022/01/07 10:14:10;;;;;;;9.37;4.23;;;-3.70;99.90;;;;;;5074561;28;20194;-73
2022/01/07 10:16:56;;;;;;;11.10;4.37;;;-3.90;99.90;;;;;;5077003;28;20262;-70
2022/01/07 10:19:39;;;;;;;5.93;3.40;;;-3.50;99.90;;;;;;5074904;28;20209;-71
2022/01/07 10:22:07;;;;;;;7.20;5.73;;;-3.90;99.90;;;;;;5069433;28;20512;-70
2022/01/07 10:24:56;;;;;;;8.37;3.40;;;-4.30;99.90;;;;;;5075960;28;20164;-73
2022/01/07 10:27:24;;;;;;;6.50;4.13;;;-4.40;99.90;;;;;;5074908;28;20185;-71
2022/01/07 10:29:50;;;;;;;3.73;3.30;;;-4.30;99.90;;;;;;5064473;28;20176;-71
2022/01/07 10:32:31;;;;;;;15.17;5.97;;;-3.90;99.90;;;;;;5067710;28;21344;-70
2022/01/07 10:35:17;;;;;;;4.47;3.47;;;-3.30;99.90;;;;;;5075411;28;20249;-75
2022/01/07 10:38:00;;;;;;;9.73;4.90;;;-3.80;99.90;;;;;;5074470;28;20571;-74
2022/01/07 10:40:33;;;;;;;7.13;3.07;;;-3.60;99.90;;;;;;5075191;28;20182;-74
2022/01/07 10:43:24;;;;;;;8.00;2.80;;;-4.00;99.90;;;;;;5074347;28;20546;-74
2022/01/07 10:45:52;;;;;;;5.47;2.90;;;-4.10;99.90;;;;;;5074038;28;20167;-73
2022/01/07 10:48:20;;;;;;;3.17;2.23;;;-3.90;99.90;;;;;;5076212;28;20499;-73
2022/01/07 10:50:49;;;;;;;6.03;3.50;;;-4.00;99.90;;;;;;5074246;28;20186;-73
2022/01/07 10:53:28;;;;;;;4.00;2.57;;;-3.80;99.90;;;;;;5075986;28;20416;-73
2022/01/07 10:56:02;;;;;;;3.90;2.40;;;-3.50;99.90;;;;;;5070583;28;20427;-73
2022/01/07 10:58:28;;;;;;;4.27;1.67;;;-3.80;99.90;;;;;;5059119;28;20497;-72
2022/01/07 11:00:54;;;;;;;3.03;1.93;;;-4.20;99.90;;;;;;5071359;28;20210;-73
2022/01/07 11:03:20;;;;;;;3.27;1.83;;;-3.50;99.90;;;;;;5076278;28;20167;-73
2022/01/07 11:05:46;;;;;;;3.33;1.93;;;-3.20;99.90;;;;;;5074924;28;20423;-74
2022/01/07 11:08:16;;;;;;;4.60;1.83;;;-4.00;99.90;;;;;;5075157;28;20451;-73
2022/01/07 11:10:43;;;;;;;3.67;1.90;;;-1.80;99.90;;;;;;5075409;28;20187;-73
2022/01/07 11:13:11;;;;;;;4.60;2.20;;;-1.40;99.90;;;;;;5072493;28;20183;-73
2022/01/07 11:15:38;;;;;;;8.37;2.70;;;-2.00;99.90;;;;;;5066409;28;20233;-74
2022/01/07 11:18:04;;;;;;;5.73;2.63;;;-3.40;99.90;;;;;;5064006;28;20409;-75
2022/01/07 11:20:30;;;;;;;4.00;1.67;;;-3.90;99.90;;;;;;5061309;28;20526;-73
2022/01/07 11:22:56;;;;;;;3.80;1.30;;;-2.70;99.90;;;;;;5072345;28;20229;-73
2022/01/07 11:25:32;;;;;;;3.63;1.93;;;-3.10;99.90;;;;;;5068169;28;20233;-73
2022/01/07 11:27:59;;;;;;;3.20;1.80;;;-3.60;99.90;;;;;;5065641;28;20240;-74
2022/01/07 11:30:32;;;;;;;4.20;1.73;;;-2.10;99.90;;;;;;5063887;28;20414;-75
2022/01/07 11:32:59;;;;;;;3.53;2.53;;;-4.00;99.90;;;;;;5075614;28;20452;-76
2022/01/07 11:35:26;;;;;;;2.53;1.90;;;-4.10;99.90;;;;;;5075165;28;20411;-72
2022/01/07 11:37:54;;;;;;;4.43;2.63;;;-4.10;99.90;;;;;;5074236;28;20176;-75
2022/01/07 11:40:31;;;;;;;5.13;2.23;;;-4.20;99.90;;;;;;5075112;28;20424;-75
2022/01/07 11:43:01;;;;;;;2.13;1.87;;;-4.10;99.90;;;;;;5068120;28;20515;-76
2022/01/07 11:45:37;;;;;;;2.40;2.20;;;-4.00;99.90;;;;;;5065621;28;20484;-73
2022/01/07 11:48:13;;;;;;;4.53;2.30;;;-4.00;99.90;;;;;;5063231;28;20406;-74
2022/01/07 11:51:08;;;;;;;4.40;2.20;;;-4.20;99.90;;;;;;5062707;28;20404;-75
2022/01/07 11:53:39;;;;;;;9.27;2.57;;;-4.30;99.90;;;;;;5064993;28;20187;-77
2022/01/07 11:56:08;;;;;;;3.33;2.60;;;-4.40;99.90;;;;;;5060353;28;20450;-72
2022/01/07 11:58:38;;;;;;;10.20;2.30;;;-4.30;99.90;;;;;;5063965;28;20540;-72
2022/01/07 12:01:05;;;;;;;7.53;4.00;;;-3.90;99.90;;;;;;5065865;28;20195;-74
2022/01/07 12:03:31;;;;;;;4.93;3.73;;;-3.40;99.90;;;;;;5067759;28;20412;-72
2022/01/07 12:05:56;;;;;;;9.00;2.70;;;-3.10;99.90;;;;;;5066311;28;20182;-73
2022/01/07 12:08:39;;;;;;;2.93;2.43;;;-3.50;99.90;;;;;;5063549;28;20170;-75
2022/01/07 12:11:10;;;;;;;5.40;2.67;;;-2.70;99.90;;;;;;5065369;28;20239;-77
2022/01/07 12:13:39;;;;;;;6.77;2.80;;;-3.90;99.90;;;;;;5064174;28;20427;-73
2022/01/07 12:16:06;;;;;;;2.20;2.00;;;-2.30;99.90;;;;;;5072856;28;20926;-77
2022/01/07 12:18:35;;;;;;;3.20;2.60;;;-2.00;99.90;;;;;;5055218;28;20846;-74
2022/01/07 12:21:02;;;;;;;7.60;2.40;;;-3.20;99.90;;;;;;5074055;28;20439;-74
2022/01/07 12:23:28;;;;;;;3.43;2.30;;;-3.30;99.90;;;;;;5069550;28;20414;-75
2022/01/07 12:25:55;;;;;;;3.67;2.63;;;-3.50;99.90;;;;;;5065050;28;20415;-74
2022/01/07 12:28:22;;;;;;;2.80;2.40;;;-3.60;99.90;;;;;;5057568;28;20576;-73
2022/01/07 12:30:50;;;;;;;3.57;2.07;;;-3.00;99.90;;;;;;5054112;28;20419;-76
2022/01/07 12:33:16;;;;;;;1.90;1.80;;;-3.10;99.90;;;;;;5052322;28;20898;-72
2022/01/07 12:35:42;;;;;;;4.63;2.17;;;-3.20;99.90;;;;;;5072043;28;20206;-77
2022/01/07 12:38:17;;;;;;;1.73;1.63;;;-3.00;99.90;;;;;;5071267;28;20291;-76
2022/01/07 12:40:55;;;;;;;2.90;1.70;;;-2.60;99.90;;;;;;5088577;28;20225;-74
2022/01/07 12:43:22;;;;;;;4.70;2.37;;;-3.00;99.90;;;;;;5095204;28;20718;-76
2022/01/07 12:46:08;;;;;;;6.60;1.70;;;-3.30;99.90;;;;;;5074755;28;20402;-73
2022/01/07 12:48:37;;;;;;;3.03;1.67;;;-3.20;99.90;;;;;;5082014;28;20484;-71
2022/01/07 12:51:05;;;;;;;2.17;1.13;;;-3.20;99.90;;;;;;5088614;28;20408;-71
2022/01/07 12:53:30;;;;;;;2.47;1.10;;;-3.20;99.90;;;;;;5078304;28;20409;-70
2022/01/07 12:56:24;;;;;;;3.33;0.93;;;-4.00;99.90;;;;;;5078491;28;20397;-70
2022/01/07 12:58:50;;;;;;;4.53;0.90;;;-4.20;99.90;;;;;;5078219;28;20284;-71